Time;durP1;ratioP1;P1;durP2;ratioP2;P2;SDS_P1;SDS_P2;PMS_P1;PMS_P2;Temp;Humidity;BMP_temperature;BMP_pressure;BME280_temperature;BME280_humidity;BME280_pressure;Samples;Min_cycle;Max_cycle;Signal;HPM_P1;HPM_P2
2022/09/02 00:00:41;;;;;;;2.03;0.45;;;15.90;99.90;;;;;;5070020;28;20451;-71
2022/09/02 00:03:07;;;;;;;0.50;0.50;;;15.80;99.90;;;;;;5069506;28;20179;-69
2022/09/02 00:05:32;;;;;;;1.77;0.60;;;15.70;99.90;;;;;;5070220;28;20123;-69
2022/09/02 00:07:58;;;;;;;0.70;0.25;;;15.70;99.90;;;;;;5061871;28;20421;-71
2022/09/02 00:10:24;;;;;;;0.93;0.50;;;15.60;99.90;;;;;;5068651;28;20037;-69
2022/09/02 00:12:50;;;;;;;0.70;0.50;;;15.60;99.90;;;;;;5047514;28;20409;-71
2022/09/02 00:15:15;;;;;;;2.58;0.32;;;15.60;99.90;;;;;;5069135;28;20033;-69
2022/09/02 00:17:41;;;;;;;1.27;0.40;;;15.60;99.90;;;;;;5069272;28;20492;-69
2022/09/02 00:20:07;;;;;;;0.40;0.40;;;15.50;99.90;;;;;;5069555;28;20116;-71
2022/09/02 00:22:32;;;;;;;1.45;0.40;;;15.50;99.90;;;;;;5069192;28;20048;-72
2022/09/02 00:24:58;;;;;;;2.15;0.60;;;15.50;99.90;;;;;;5069690;28;20452;-70
2022/09/02 00:27:24;;;;;;;1.15;0.60;;;15.50;99.90;;;;;;5066221;28;20049;-69
2022/09/02 00:29:50;;;;;;;1.20;0.50;;;15.90;99.90;;;;;;5066944;28;20080;-69
2022/09/02 00:32:15;;;;;;;1.60;0.50;;;15.40;99.90;;;;;;5069422;28;20084;-70
2022/09/02 00:34:41;;;;;;;2.33;0.47;;;15.30;99.90;;;;;;5069730;28;20044;-70
2022/09/02 00:37:06;;;;;;;5.28;0.32;;;15.30;99.90;;;;;;5068721;28;20028;-68
2022/09/02 00:39:32;;;;;;;1.35;0.70;;;15.30;99.90;;;;;;5069412;28;20559;-68
2022/09/02 00:42:00;;;;;;;0.25;0.20;;;15.30;99.90;;;;;;5051428;28;20044;-71
2022/09/02 00:44:26;;;;;;;1.67;0.40;;;15.30;99.90;;;;;;5072512;28;20515;-71
2022/09/02 00:46:51;;;;;;;1.45;0.45;;;15.20;99.90;;;;;;5073605;28;20056;-69
2022/09/02 00:49:29;;;;;;;3.35;0.50;;;15.50;99.90;;;;;;5072604;28;20028;-69
2022/09/02 00:52:02;;;;;;;2.75;0.52;;;15.20;99.90;;;;;;5072975;28;20040;-70
2022/09/02 00:54:30;;;;;;;0.70;0.32;;;15.20;99.90;;;;;;5072774;28;20457;-68
2022/09/02 00:56:57;;;;;;;2.63;0.40;;;15.20;99.90;;;;;;5073286;28;20408;-68
2022/09/02 00:59:32;;;;;;;3.00;0.43;;;15.30;99.90;;;;;;5054188;28;20040;-70
2022/09/02 01:01:58;;;;;;;0.98;0.70;;;15.10;99.90;;;;;;5072394;28;20047;-72
2022/09/02 01:04:24;;;;;;;3.78;0.50;;;15.10;99.90;;;;;;5072672;28;20040;-69
2022/09/02 01:06:51;;;;;;;0.77;0.50;;;15.50;99.90;;;;;;5064797;28;20041;-71
2022/09/02 01:09:17;;;;;;;4.55;0.70;;;15.10;99.90;;;;;;5072076;28;20472;-69
2022/09/02 01:11:48;;;;;;;2.88;0.60;;;15.00;99.90;;;;;;5071191;28;20127;-68
2022/09/02 01:14:15;;;;;;;0.70;0.45;;;15.00;99.90;;;;;;5072623;28;20040;-69
2022/09/02 01:16:45;;;;;;;1.90;0.38;;;15.00;99.90;;;;;;5054778;28;20052;-68
2022/09/02 01:19:21;;;;;;;2.85;0.40;;;14.90;99.90;;;;;;5071495;28;20051;-68
2022/09/02 01:21:49;;;;;;;1.15;0.80;;;15.30;99.90;;;;;;5070080;28;20048;-69
2022/09/02 01:24:16;;;;;;;2.13;0.40;;;14.90;99.90;;;;;;5071431;28;20029;-70
2022/09/02 01:26:42;;;;;;;2.05;0.63;;;15.70;99.90;;;;;;5070731;28;20392;-70
2022/09/02 01:29:07;;;;;;;1.90;0.60;;;14.80;99.90;;;;;;5071753;28;20049;-71
2022/09/02 01:31:33;;;;;;;2.97;0.60;;;14.80;99.90;;;;;;5072460;28;20040;-69
2022/09/02 01:33:59;;;;;;;1.50;0.50;;;14.80;99.90;;;;;;5072121;28;20048;-69
2022/09/02 01:36:24;;;;;;;2.38;0.40;;;14.80;99.90;;;;;;5070615;28;20032;-68
2022/09/02 01:38:50;;;;;;;1.95;0.47;;;14.80;99.90;;;;;;5071063;28;20052;-70
2022/09/02 01:41:16;;;;;;;2.60;0.50;;;14.80;99.90;;;;;;5065655;28;20113;-70
2022/09/02 01:43:41;;;;;;;3.67;1.40;;;14.70;99.90;;;;;;5072683;28;20542;-70
2022/09/02 01:46:07;;;;;;;2.05;0.75;;;14.90;99.90;;;;;;5064204;28;20032;-70
2022/09/02 01:48:33;;;;;;;0.50;0.28;;;14.70;99.90;;;;;;5071357;28;20055;-71
2022/09/02 01:51:01;;;;;;;0.90;0.50;;;14.70;99.90;;;;;;5072295;28;20055;-72
2022/09/02 01:53:28;;;;;;;0.70;0.30;;;14.60;99.90;;;;;;5071568;28;20047;-72
2022/09/02 01:55:54;;;;;;;1.08;0.55;;;14.60;99.90;;;;;;5070412;28;20133;-70
2022/09/02 01:58:20;;;;;;;1.42;0.30;;;14.60;99.90;;;;;;5071413;28;20068;-70
2022/09/02 02:00:46;;;;;;;0.40;0.30;;;14.60;99.90;;;;;;5071342;28;20045;-69
2022/09/02 02:03:12;;;;;;;0.40;0.30;;;14.50;99.90;;;;;;5072205;28;20126;-72
2022/09/02 02:05:38;;;;;;;2.38;0.50;;;15.00;99.90;;;;;;5072421;28;20095;-70
2022/09/02 02:08:05;;;;;;;2.17;0.35;;;14.50;99.90;;;;;;5070188;28;20040;-70
2022/09/02 02:10:31;;;;;;;3.50;0.30;;;14.50;99.90;;;;;;5071804;28;20500;-72
2022/09/02 02:12:56;;;;;;;0.88;0.52;;;14.50;99.90;;;;;;5071517;28;20126;-72
2022/09/02 02:15:23;;;;;;;2.60;0.30;;;14.50;99.90;;;;;;5069907;28;20037;-70
2022/09/02 02:17:49;;;;;;;1.08;0.50;;;14.40;99.90;;;;;;5071381;28;20063;-70
2022/09/02 02:20:17;;;;;;;1.85;0.57;;;14.50;99.90;;;;;;5065074;28;20127;-69
2022/09/02 02:22:43;;;;;;;0.43;0.30;;;14.40;99.90;;;;;;5069777;28;20082;-71
2022/09/02 02:25:10;;;;;;;1.08;0.52;;;14.40;99.90;;;;;;5071440;28;20036;-71
2022/09/02 02:27:36;;;;;;;1.90;0.30;;;14.40;99.90;;;;;;5071350;28;20124;-71
2022/09/02 02:30:02;;;;;;;2.30;0.40;;;14.30;99.90;;;;;;5070423;28;20123;-71
2022/09/02 02:32:29;;;;;;;0.63;0.40;;;14.40;99.90;;;;;;5071323;28;20043;-73
2022/09/02 02:34:55;;;;;;;2.15;0.50;;;14.30;99.90;;;;;;5053327;28;20317;-73
2022/09/02 02:37:20;;;;;;;2.33;0.40;;;14.30;99.90;;;;;;5068733;28;20044;-69
2022/09/02 02:39:46;;;;;;;1.83;0.50;;;14.30;99.90;;;;;;5071149;28;20041;-70
2022/09/02 02:42:12;;;;;;;0.95;0.40;;;15.10;99.90;;;;;;5068075;28;20044;-70
2022/09/02 02:44:38;;;;;;;3.03;0.60;;;14.20;99.90;;;;;;5069545;28;20072;-69
2022/09/02 02:47:04;;;;;;;6.53;0.88;;;14.20;99.90;;;;;;5071309;28;20135;-71
2022/09/02 02:49:29;;;;;;;0.47;0.43;;;14.20;99.90;;;;;;5070119;28;20108;-69
2022/09/02 02:51:55;;;;;;;1.73;0.60;;;14.10;99.90;;;;;;5069154;28;20485;-69
2022/09/02 02:54:21;;;;;;;1.02;0.40;;;14.20;99.90;;;;;;5069272;28;20501;-71
2022/09/02 02:56:47;;;;;;;1.67;0.40;;;14.10;99.90;;;;;;5069909;28;20506;-71
2022/09/02 02:59:13;;;;;;;1.80;0.60;;;14.10;99.90;;;;;;5068607;28;20056;-72
2022/09/02 03:01:38;;;;;;;3.38;0.40;;;14.00;99.90;;;;;;5070811;28;20075;-73
2022/09/02 03:04:05;;;;;;;3.72;0.35;;;14.70;99.90;;;;;;5063334;28;20091;-72
2022/09/02 03:06:30;;;;;;;5.15;0.80;;;14.50;99.90;;;;;;5068364;28;20477;-70
2022/09/02 03:08:57;;;;;;;1.30;0.52;;;14.00;99.90;;;;;;5070219;28;20135;-69
2022/09/02 03:11:26;;;;;;;0.50;0.30;;;14.00;99.90;;;;;;5068709;28;20036;-70
2022/09/02 03:13:52;;;;;;;3.10;0.57;;;14.00;99.90;;;;;;5070727;28;20101;-69
2022/09/02 03:16:18;;;;;;;0.52;0.35;;;14.00;99.90;;;;;;5065689;28;20069;-69
2022/09/02 03:18:45;;;;;;;3.17;0.73;;;14.00;99.90;;;;;;5069554;28;20041;-71
2022/09/02 03:21:12;;;;;;;0.77;0.50;;;13.80;99.90;;;;;;5070725;28;20071;-72
2022/09/02 03:23:38;;;;;;;1.63;0.60;;;13.90;99.90;;;;;;5070273;28;20044;-72
2022/09/02 03:26:10;;;;;;;2.53;0.57;;;13.90;99.90;;;;;;5068560;28;20063;-69
2022/09/02 03:28:35;;;;;;;1.05;0.65;;;13.90;99.90;;;;;;5069960;28;20068;-71
2022/09/02 03:31:01;;;;;;;0.70;0.50;;;13.90;99.90;;;;;;5070446;28;20520;-72
2022/09/02 03:33:27;;;;;;;2.17;0.57;;;13.90;99.90;;;;;;5069800;28;20040;-71
2022/09/02 03:35:52;;;;;;;3.50;0.65;;;13.90;99.90;;;;;;5069071;28;20459;-70
2022/09/02 03:38:18;;;;;;;1.55;0.55;;;13.90;99.90;;;;;;5052093;28;20041;-72
2022/09/02 03:40:44;;;;;;;3.70;0.70;;;13.90;99.90;;;;;;5068696;28;20040;-70
2022/09/02 03:43:09;;;;;;;3.72;0.82;;;14.40;99.90;;;;;;5070352;28;20484;-72
2022/09/02 03:45:37;;;;;;;0.77;0.50;;;13.80;99.90;;;;;;5070752;28;20045;-72
2022/09/02 03:48:03;;;;;;;2.85;0.80;;;13.80;99.90;;;;;;5069193;28;20051;-69
2022/09/02 03:50:33;;;;;;;0.50;0.47;;;13.80;99.90;;;;;;5068779;28;20119;-71
2022/09/02 03:52:59;;;;;;;0.95;0.77;;;13.80;99.90;;;;;;5070014;28;20492;-71
2022/09/02 03:55:26;;;;;;;1.38;0.40;;;13.70;99.90;;;;;;5068131;28;20119;-72
2022/09/02 03:57:51;;;;;;;2.65;0.63;;;13.70;99.90;;;;;;5065156;28;20489;-72
2022/09/02 04:00:19;;;;;;;5.22;0.63;;;13.70;99.90;;;;;;5069526;28;20082;-73
2022/09/02 04:02:45;;;;;;;0.88;0.47;;;13.60;99.90;;;;;;5068761;28;20404;-73
2022/09/02 04:05:17;;;;;;;1.65;0.47;;;13.60;99.90;;;;;;5069919;28;20045;-69
2022/09/02 04:07:44;;;;;;;3.03;0.70;;;13.60;99.90;;;;;;5064639;28;20048;-69
2022/09/02 04:10:10;;;;;;;1.38;0.45;;;13.60;99.90;;;;;;5069065;28;20048;-71
2022/09/02 04:12:37;;;;;;;1.30;0.50;;;13.60;99.90;;;;;;5070082;28;20412;-69
2022/09/02 04:15:05;;;;;;;1.33;0.57;;;13.70;99.90;;;;;;5063493;28;20488;-69
2022/09/02 04:17:34;;;;;;;3.17;1.13;;;13.50;99.90;;;;;;5069433;28;20400;-71
2022/09/02 04:19:59;;;;;;;0.70;0.70;;;13.50;99.90;;;;;;5073858;28;20424;-71
2022/09/02 04:22:25;;;;;;;4.72;0.57;;;13.50;99.90;;;;;;5073263;28;20126;-69
2022/09/02 04:24:50;;;;;;;0.60;0.60;;;13.50;99.90;;;;;;5074151;28;20064;-69
2022/09/02 04:27:16;;;;;;;1.77;0.50;;;13.50;99.90;;;;;;5073508;28;20040;-70
2022/09/02 04:29:42;;;;;;;3.58;0.90;;;13.50;99.90;;;;;;5073198;28;20048;-69
2022/09/02 04:32:07;;;;;;;3.97;0.45;;;13.50;99.90;;;;;;5072424;28;20145;-69
2022/09/02 04:34:33;;;;;;;1.20;0.32;;;13.40;99.90;;;;;;5074337;28;20052;-72
2022/09/02 04:36:59;;;;;;;5.28;0.63;;;13.40;99.90;;;;;;5073037;28;20051;-70
2022/09/02 04:39:24;;;;;;;1.80;0.70;;;13.40;99.90;;;;;;5055242;28;20036;-71
2022/09/02 04:41:50;;;;;;;2.22;0.70;;;13.70;99.90;;;;;;5074053;28;20036;-67
2022/09/02 04:44:15;;;;;;;1.30;0.70;;;13.40;99.90;;;;;;5072914;28;20056;-68
2022/09/02 04:46:41;;;;;;;4.47;0.80;;;13.70;99.90;;;;;;5071433;28;20507;-70
2022/09/02 04:49:07;;;;;;;2.25;0.80;;;13.30;99.90;;;;;;5072008;28;20082;-68
2022/09/02 04:51:33;;;;;;;2.55;0.80;;;13.40;99.90;;;;;;5072924;28;20032;-68
2022/09/02 04:53:59;;;;;;;1.52;0.60;;;13.30;99.90;;;;;;5073171;28;20106;-68
2022/09/02 04:56:28;;;;;;;0.57;0.55;;;13.30;99.90;;;;;;5072055;28;20036;-68
2022/09/02 04:58:54;;;;;;;2.08;0.82;;;13.70;99.90;;;;;;5070861;28;20051;-68
2022/09/02 05:01:26;;;;;;;2.70;0.85;;;13.30;99.90;;;;;;5073317;28;20579;-69
2022/09/02 05:03:53;;;;;;;0.77;0.52;;;13.20;99.90;;;;;;5071621;28;20036;-69
2022/09/02 05:06:22;;;;;;;1.75;0.57;;;13.20;99.90;;;;;;5069472;28;20373;-70
2022/09/02 05:08:48;;;;;;;1.73;0.90;;;13.20;99.90;;;;;;5072866;28;20048;-69
2022/09/02 05:11:21;;;;;;;2.38;0.68;;;13.20;99.90;;;;;;5070928;28;20044;-69
2022/09/02 05:13:50;;;;;;;2.38;0.80;;;13.20;99.90;;;;;;5072201;28;20486;-68
2022/09/02 05:16:21;;;;;;;3.80;0.77;;;13.10;99.90;;;;;;5073089;28;20052;-68
2022/09/02 05:18:48;;;;;;;1.90;0.60;;;13.10;99.90;;;;;;5070986;28;20044;-68
2022/09/02 05:21:15;;;;;;;3.55;0.65;;;13.20;99.90;;;;;;5072861;28;20040;-71
2022/09/02 05:23:41;;;;;;;0.88;0.60;;;13.20;99.90;;;;;;5071870;28;20048;-72
2022/09/02 05:26:09;;;;;;;1.85;0.90;;;13.10;99.90;;;;;;5072043;28;20048;-70
2022/09/02 05:28:36;;;;;;;1.92;1.13;;;13.40;99.90;;;;;;5067210;28;20055;-72
2022/09/02 05:31:04;;;;;;;3.15;0.52;;;13.10;99.90;;;;;;5072646;28;20496;-72
2022/09/02 05:33:36;;;;;;;4.63;0.60;;;13.10;99.90;;;;;;5072317;28;20094;-72
2022/09/02 05:36:02;;;;;;;2.78;1.05;;;13.20;99.90;;;;;;5072457;28;20051;-71
2022/09/02 05:38:28;;;;;;;0.90;0.90;;;13.20;99.90;;;;;;5072067;28;20516;-71
2022/09/02 05:40:54;;;;;;;3.80;1.10;;;13.20;99.90;;;;;;5070993;28;20051;-72
2022/09/02 05:43:21;;;;;;;2.75;1.02;;;13.20;99.90;;;;;;5072215;28;20044;-69
2022/09/02 05:45:47;;;;;;;1.35;0.77;;;13.20;99.90;;;;;;5063776;28;20139;-69
2022/09/02 05:50:58;;;;;;;1.95;0.88;;;13.20;99.90;;;;;;5071278;28;20051;-71
2022/09/02 05:53:25;;;;;;;3.70;0.93;;;13.30;99.90;;;;;;5071501;28;20043;-69
2022/09/02 05:55:51;;;;;;;1.13;0.77;;;13.30;99.90;;;;;;5072428;28;20375;-71
2022/09/02 05:58:17;;;;;;;3.53;0.93;;;13.30;99.90;;;;;;5071604;28;20119;-71
2022/09/02 06:00:43;;;;;;;2.03;0.70;;;13.40;99.90;;;;;;5047873;28;20047;-69
2022/09/02 06:03:08;;;;;;;1.42;1.27;;;13.40;99.90;;;;;;5069780;28;20476;-70
2022/09/02 06:05:37;;;;;;;2.15;0.88;;;13.80;99.90;;;;;;5067958;28;20393;-70
2022/09/02 06:08:02;;;;;;;1.77;0.70;;;13.40;99.90;;;;;;5068340;28;20446;-69
2022/09/02 06:10:28;;;;;;;8.70;1.08;;;13.50;99.90;;;;;;5071736;28;20048;-73
2022/09/02 06:12:54;;;;;;;3.20;1.00;;;13.40;99.90;;;;;;5071943;28;20086;-72
2022/09/02 06:15:19;;;;;;;2.78;1.17;;;13.50;99.90;;;;;;5071155;28;20036;-69
2022/09/02 06:17:45;;;;;;;2.05;1.00;;;13.60;99.90;;;;;;5071470;28;20082;-71
2022/09/02 06:20:10;;;;;;;1.60;1.27;;;13.60;99.90;;;;;;5071441;28;20064;-70
2022/09/02 06:22:36;;;;;;;5.03;1.13;;;13.60;99.90;;;;;;5071889;28;20062;-71
2022/09/02 06:25:02;;;;;;;7.40;1.48;;;13.60;99.90;;;;;;5071692;28;20044;-69
2022/09/02 06:27:28;;;;;;;4.07;1.00;;;13.70;99.90;;;;;;5053275;28;20123;-71
2022/09/02 06:29:54;;;;;;;1.42;0.90;;;13.70;99.90;;;;;;5070800;28;20087;-69
2022/09/02 06:32:20;;;;;;;2.60;1.00;;;13.80;99.90;;;;;;5071791;28;20044;-69
2022/09/02 06:34:45;;;;;;;3.53;1.08;;;13.80;99.90;;;;;;5071385;28;20036;-70
2022/09/02 06:37:11;;;;;;;3.63;0.93;;;13.90;99.90;;;;;;5070467;28;20036;-69
2022/09/02 06:39:37;;;;;;;4.07;1.02;;;13.90;99.90;;;;;;5071540;28;20091;-69
2022/09/02 06:42:03;;;;;;;2.25;1.10;;;13.90;99.90;;;;;;5070216;28;20068;-69
2022/09/02 06:44:28;;;;;;;2.80;1.30;;;14.00;99.90;;;;;;5071206;28;20075;-70
2022/09/02 06:46:57;;;;;;;2.67;1.20;;;14.10;99.90;;;;;;5070843;28;20037;-69
2022/09/02 06:49:24;;;;;;;2.80;1.48;;;14.20;99.90;;;;;;5070154;28;20389;-72
2022/09/02 06:51:52;;;;;;;2.88;1.23;;;14.20;99.90;;;;;;5067006;28;20036;-69
2022/09/02 06:54:21;;;;;;;3.45;1.45;;;14.30;99.90;;;;;;5066547;28;20053;-70
2022/09/02 06:56:48;;;;;;;5.38;0.77;;;14.30;99.90;;;;;;5070701;28;20048;-69
2022/09/02 06:59:14;;;;;;;7.70;1.48;;;14.40;99.90;;;;;;5070558;28;20079;-71
2022/09/02 07:01:40;;;;;;;3.75;1.10;;;15.20;99.90;;;;;;5070012;28;20064;-70
2022/09/02 07:06:53;;;;;;;1.45;1.00;;;14.50;99.90;;;;;;5061718;28;20045;-68
2022/09/02 07:09:29;;;;;;;2.90;1.25;;;14.60;99.90;;;;;;5069201;28;20127;-69
2022/09/02 07:11:56;;;;;;;3.42;1.13;;;14.70;99.90;;;;;;5070264;28;20044;-69
2022/09/02 07:14:23;;;;;;;2.53;1.00;;;14.70;99.90;;;;;;5070391;28;20036;-68
2022/09/02 07:16:51;;;;;;;1.20;1.00;;;14.70;99.90;;;;;;5070500;28;20060;-68
2022/09/02 07:19:20;;;;;;;2.72;1.05;;;14.80;99.90;;;;;;5068520;28;20036;-69
2022/09/02 07:21:48;;;;;;;3.47;1.35;;;14.90;99.90;;;;;;5069771;28;20089;-70
2022/09/02 07:24:15;;;;;;;1.05;0.95;;;14.90;99.90;;;;;;5069939;28;20051;-70
2022/09/02 07:26:42;;;;;;;2.25;0.90;;;15.00;99.90;;;;;;5070524;28;20037;-71
2022/09/02 07:29:09;;;;;;;3.53;1.20;;;15.00;99.90;;;;;;5069944;28;20464;-69
2022/09/02 07:31:40;;;;;;;7.25;1.35;;;15.80;99.90;;;;;;5067631;28;20055;-71
2022/09/02 07:34:08;;;;;;;2.95;0.90;;;15.30;99.90;;;;;;5069126;28;20047;-71
2022/09/02 07:36:35;;;;;;;1.55;0.90;;;15.30;99.90;;;;;;5069706;28;20074;-71
2022/09/02 07:39:05;;;;;;;2.63;1.10;;;15.80;99.90;;;;;;5070414;28;20040;-71
2022/09/02 07:41:31;;;;;;;2.72;1.05;;;15.50;99.90;;;;;;5070429;28;20450;-71
2022/09/02 07:43:57;;;;;;;1.65;0.90;;;15.60;99.90;;;;;;5069765;28;20036;-71
2022/09/02 07:46:23;;;;;;;3.65;1.23;;;15.70;99.90;;;;;;5070107;28;20051;-71
2022/09/02 07:48:49;;;;;;;4.93;0.85;;;15.80;99.90;;;;;;5070050;28;20507;-71
2022/09/02 07:51:15;;;;;;;2.92;0.93;;;15.90;99.90;;;;;;5069403;28;20041;-72
2022/09/02 07:53:42;;;;;;;2.88;1.38;;;15.90;99.90;;;;;;5070056;28;20076;-68
2022/09/02 07:56:08;;;;;;;3.47;1.25;;;16.00;99.90;;;;;;5065960;28;20063;-68
2022/09/02 07:58:34;;;;;;;0.98;0.98;;;16.00;99.90;;;;;;5069256;28;20548;-69
2022/09/02 08:01:00;;;;;;;2.45;1.40;;;16.10;99.90;;;;;;5070554;28;20135;-70
2022/09/02 08:03:26;;;;;;;4.10;1.65;;;16.20;99.90;;;;;;5052169;28;20044;-69
2022/09/02 08:05:52;;;;;;;5.43;1.33;;;16.30;99.90;;;;;;5067691;28;20090;-68
2022/09/02 08:08:19;;;;;;;3.00;1.13;;;16.70;99.90;;;;;;5065557;28;20066;-68
2022/09/02 08:10:47;;;;;;;3.13;1.10;;;16.40;99.90;;;;;;5070163;28;20033;-68
2022/09/02 08:13:13;;;;;;;3.03;1.27;;;16.50;99.90;;;;;;5066120;28;20049;-69
2022/09/02 08:15:39;;;;;;;1.58;1.48;;;16.50;99.90;;;;;;5062281;28;20032;-69
2022/09/02 08:18:06;;;;;;;2.13;1.33;;;16.60;99.90;;;;;;5068581;28;20469;-68
2022/09/02 08:20:32;;;;;;;1.20;1.05;;;16.70;99.90;;;;;;5069453;28;20040;-68
2022/09/02 08:22:58;;;;;;;1.45;0.90;;;16.80;99.90;;;;;;5070031;28;20087;-69
2022/09/02 08:25:24;;;;;;;3.03;1.05;;;17.30;99.90;;;;;;5069991;28;20072;-71
2022/09/02 08:27:50;;;;;;;2.88;1.20;;;17.00;99.90;;;;;;5067605;28;20102;-69
2022/09/02 08:30:15;;;;;;;6.50;1.40;;;17.10;99.90;;;;;;5061065;28;20045;-68
2022/09/02 08:32:41;;;;;;;1.58;1.13;;;17.20;99.90;;;;;;5070218;28;20045;-70
2022/09/02 08:35:08;;;;;;;4.78;1.50;;;17.30;99.90;;;;;;5068975;28;20036;-70
2022/09/02 08:37:36;;;;;;;5.72;1.35;;;17.40;99.90;;;;;;5069561;28;20051;-68
2022/09/02 08:40:05;;;;;;;2.55;0.88;;;17.50;99.90;;;;;;5051279;28;20072;-69
2022/09/02 08:42:37;;;;;;;4.85;0.80;;;17.50;99.90;;;;;;5069691;28;20072;-69
2022/09/02 08:45:06;;;;;;;3.33;0.80;;;17.60;99.90;;;;;;5069678;28;20032;-68
2022/09/02 08:47:34;;;;;;;2.95;0.52;;;17.70;99.90;;;;;;5068867;28;20051;-68
2022/09/02 08:50:09;;;;;;;2.28;0.70;;;17.70;99.90;;;;;;5070249;28;20044;-68
2022/09/02 08:52:43;;;;;;;1.30;0.70;;;17.90;99.90;;;;;;5068602;28;20116;-68
2022/09/02 08:55:18;;;;;;;1.33;0.70;;;17.90;99.90;;;;;;5067663;28;20037;-69
2022/09/02 08:57:44;;;;;;;3.40;1.02;;;18.00;99.90;;;;;;5061420;28;20090;-70
2022/09/02 09:00:13;;;;;;;1.00;0.57;;;18.30;99.90;;;;;;5069475;28;20500;-71
2022/09/02 09:02:44;;;;;;;4.35;0.85;;;18.30;99.90;;;;;;5067507;28;20044;-71
2022/09/02 09:05:25;;;;;;;9.80;1.30;;;18.40;99.90;;;;;;5067532;28;20036;-71
2022/09/02 09:08:13;;;;;;;3.25;0.60;;;18.50;99.90;;;;;;5064240;28;20044;-71
2022/09/02 09:11:16;;;;;;;4.22;0.57;;;18.70;99.90;;;;;;5073367;28;20310;-69
2022/09/02 09:13:59;;;;;;;1.23;0.73;;;18.70;99.90;;;;;;5071446;28;20055;-72
2022/09/02 09:16:36;;;;;;;2.60;0.45;;;18.90;99.90;;;;;;5054090;28;20460;-71
2022/09/02 09:19:15;;;;;;;3.13;0.30;;;19.00;99.90;;;;;;5073009;28;20028;-69
2022/09/02 09:21:42;;;;;;;2.45;0.50;;;19.10;99.90;;;;;;5064718;28;20512;-72
2022/09/02 09:24:14;;;;;;;8.65;0.82;;;19.20;99.90;;;;;;5064643;28;20032;-71
2022/09/02 09:26:41;;;;;;;2.20;0.98;;;19.30;99.90;;;;;;5071677;28;20052;-69
2022/09/02 09:29:06;;;;;;;4.25;0.40;;;19.50;99.80;;;;;;5071514;28;20124;-70
2022/09/02 09:31:34;;;;;;;3.30;0.50;;;19.60;99.40;;;;;;5071546;28;20135;-73
2022/09/02 09:34:08;;;;;;;2.33;0.45;;;19.50;98.80;;;;;;5072871;28;20067;-70
2022/09/02 09:36:39;;;;;;;1.23;0.40;;;19.70;98.50;;;;;;5072172;28;20060;-70
2022/09/02 09:39:31;;;;;;;5.53;0.73;;;19.70;98.60;;;;;;5072638;28;20044;-68
2022/09/02 09:42:02;;;;;;;2.92;0.38;;;19.80;97.80;;;;;;5064486;28;20056;-70
2022/09/02 09:44:39;;;;;;;6.72;0.50;;;19.90;98.50;;;;;;5066810;28;20484;-69
2022/09/02 09:47:08;;;;;;;1.58;0.60;;;20.00;98.10;;;;;;5065343;28;20070;-69
2022/09/02 09:49:35;;;;;;;1.08;0.40;;;20.10;98.20;;;;;;5058356;28;20147;-70
2022/09/02 09:52:03;;;;;;;5.75;0.70;;;20.10;98.10;;;;;;5057991;28;20097;-72
2022/09/02 09:54:29;;;;;;;7.38;0.80;;;20.20;98.10;;;;;;5061183;28;20040;-73
2022/09/02 09:56:56;;;;;;;4.43;0.60;;;20.40;97.80;;;;;;5058777;28;20032;-80
2022/09/02 09:59:44;;;;;;;1.85;0.68;;;20.40;97.60;;;;;;5060494;28;20519;-75
2022/09/02 10:02:20;;;;;;;1.08;0.30;;;20.50;97.20;;;;;;5061085;28;20047;-79
2022/09/02 10:04:46;;;;;;;2.40;0.38;;;20.60;96.70;;;;;;5054290;28;20512;-70
2022/09/02 10:07:12;;;;;;;7.07;0.50;;;20.70;96.90;;;;;;5059860;28;20028;-71
2022/09/02 10:09:38;;;;;;;3.22;0.60;;;20.60;96.80;;;;;;4359677;28;10000706;-71
2022/09/02 10:12:11;;;;;;;2.72;0.40;;;20.80;96.40;;;;;;5067323;28;20036;-72
2022/09/02 10:14:38;;;;;;;5.28;0.30;;;20.80;96.10;;;;;;5069658;28;20256;-71
2022/09/02 10:17:31;;;;;;;2.20;0.50;;;20.80;96.00;;;;;;5060557;28;20067;-73
2022/09/02 10:20:18;;;;;;;3.45;0.40;;;20.90;95.90;;;;;;5065846;28;20040;-71
2022/09/02 10:22:59;;;;;;;2.85;0.60;;;21.00;95.90;;;;;;5068219;28;20527;-71
2022/09/02 10:25:32;;;;;;;2.83;0.32;;;21.10;95.80;;;;;;5068789;28;20036;-72
2022/09/02 10:28:11;;;;;;;0.98;0.40;;;21.20;95.10;;;;;;5062060;28;20388;-77
2022/09/02 10:31:08;;;;;;;3.45;0.60;;;21.20;95.10;;;;;;5066155;28;20076;-74
2022/09/02 10:34:02;;;;;;;2.58;0.20;;;21.30;94.60;;;;;;5067302;28;20526;-71
2022/09/02 10:36:46;;;;;;;7.13;0.50;;;21.40;95.20;;;;;;5069542;28;20063;-71
2022/09/02 10:39:19;;;;;;;;;;;21.40;94.60;;;;;;5062077;28;20087;-69
2022/09/02 10:41:46;;;;;;;2.17;0.38;;;21.50;94.40;;;;;;5069392;28;20286;-71
2022/09/02 10:44:30;;;;;;;5.05;0.73;;;21.50;94.30;;;;;;5069248;28;20566;-69
2022/09/02 10:47:14;;;;;;;4.32;0.40;;;21.50;94.40;;;;;;5062507;28;20151;-72
2022/09/02 10:50:04;;;;;;;2.13;0.52;;;21.60;94.20;;;;;;5068423;28;20375;-71
2022/09/02 10:52:40;;;;;;;2.83;0.32;;;21.80;93.90;;;;;;5069616;28;20127;-74
2022/09/02 10:55:14;;;;;;;1.08;0.50;;;21.80;93.70;;;;;;5061256;28;20066;-73
2022/09/02 10:58:05;;;;;;;5.55;0.80;;;21.90;93.50;;;;;;5066967;28;20052;-73
2022/09/02 11:00:34;;;;;;;1.80;0.60;;;22.00;92.70;;;;;;5068548;28;20059;-75
2022/09/02 11:03:30;;;;;;;3.00;0.45;;;22.20;92.60;;;;;;5061330;28;20278;-75
2022/09/02 11:06:05;;;;;;;4.10;0.68;;;22.20;92.00;;;;;;5065882;28;20040;-74
2022/09/02 11:08:52;;;;;;;8.27;0.40;;;22.30;91.80;;;;;;5063954;28;20036;-77
2022/09/02 11:11:41;;;;;;;2.28;0.68;;;22.40;92.00;;;;;;5068194;28;20454;-72
2022/09/02 11:14:45;;;;;;;5.68;0.43;;;22.40;91.80;;;;;;5062854;28;20062;-71
2022/09/02 11:17:42;;;;;;;2.80;0.40;;;22.50;91.40;;;;;;5062926;28;20044;-70
2022/09/02 11:20:14;;;;;;;2.22;0.60;;;22.60;90.80;;;;;;5070584;28;20439;-73
2022/09/02 11:23:04;;;;;;;1.75;0.75;;;22.80;90.80;;;;;;5058392;28;20051;-72
2022/09/02 11:25:38;;;;;;;4.95;0.60;;;22.90;90.70;;;;;;5070325;28;20371;-70
2022/09/02 11:28:34;;;;;;;4.38;0.40;;;23.00;90.60;;;;;;5065180;28;20049;-71
2022/09/02 11:31:09;;;;;;;4.43;0.50;;;23.10;90.40;;;;;;5062629;28;20044;-67
2022/09/02 11:33:34;;;;;;;2.40;0.30;;;23.20;90.40;;;;;;5065419;28;20562;-71
2022/09/02 11:36:00;;;;;;;2.70;0.60;;;23.40;90.60;;;;;;5069981;28;20044;-71
2022/09/02 11:39:00;;;;;;;1.10;0.30;;;23.40;90.00;;;;;;5067284;28;20515;-68
2022/09/02 11:41:51;;;;;;;4.28;0.68;;;23.50;89.90;;;;;;5068699;28;20086;-72
2022/09/02 11:44:40;;;;;;;3.72;0.50;;;23.60;89.20;;;;;;5064461;28;20508;-69
2022/09/02 11:47:32;;;;;;;4.30;0.60;;;23.70;88.70;;;;;;5060514;28;20495;-68
2022/09/02 11:50:15;;;;;;;5.22;0.28;;;23.80;87.70;;;;;;5067508;28;20147;-68
2022/09/02 11:53:14;;;;;;;3.92;0.60;;;23.80;87.60;;;;;;5070387;28;20124;-68
2022/09/02 11:55:47;;;;;;;2.75;0.63;;;24.00;85.90;;;;;;5048561;28;20059;-68
2022/09/02 11:58:29;;;;;;;1.30;0.40;;;24.10;86.30;;;;;;5064084;28;20132;-70
2022/09/02 12:00:55;;;;;;;2.05;0.28;;;24.20;86.60;;;;;;5069965;28;20040;-70
2022/09/02 12:03:28;;;;;;;3.13;0.60;;;24.20;86.40;;;;;;5067920;28;20616;-67
2022/09/02 12:06:13;;;;;;;2.87;0.30;;;24.40;85.20;;;;;;5069279;28;20079;-67
2022/09/02 12:08:43;;;;;;;1.80;0.35;;;24.40;82.40;;;;;;5066667;28;20051;-67
2022/09/02 12:11:28;;;;;;;1.00;0.32;;;24.50;81.80;;;;;;5064444;28;20124;-67
2022/09/02 12:13:54;;;;;;;2.65;0.45;;;24.60;81.70;;;;;;5051897;28;20082;-68
2022/09/02 12:16:20;;;;;;;2.42;0.40;;;24.70;81.50;;;;;;5069943;28;20043;-68
2022/09/02 12:19:09;;;;;;;3.08;0.40;;;24.70;80.80;;;;;;5068304;28;20554;-67
2022/09/02 12:21:55;;;;;;;0.75;0.30;;;24.80;80.20;;;;;;5069712;28;20044;-67
2022/09/02 12:24:23;;;;;;;2.38;0.32;;;24.90;80.10;;;;;;5061959;28;20048;-68
2022/09/02 12:26:52;;;;;;;0.95;0.50;;;25.00;80.10;;;;;;5068708;28;20072;-70
2022/09/02 12:29:17;;;;;;;1.05;0.30;;;25.20;81.30;;;;;;5067862;28;20094;-68
2022/09/02 12:31:48;;;;;;;3.13;0.15;;;25.20;78.70;;;;;;5069156;28;20052;-71
2022/09/02 12:34:19;;;;;;;4.85;0.52;;;25.30;77.50;;;;;;5067659;28;20155;-69
2022/09/02 12:37:01;;;;;;;4.32;0.52;;;25.30;77.60;;;;;;5069436;28;20048;-68
2022/09/02 12:39:27;;;;;;;3.03;0.40;;;25.30;76.70;;;;;;5070830;28;20044;-68
2022/09/02 12:42:10;;;;;;;1.55;0.40;;;25.40;76.50;;;;;;5073878;28;20040;-67
2022/09/02 12:44:55;;;;;;;1.83;0.30;;;25.40;76.40;;;;;;5069144;28;20044;-68
2022/09/02 12:47:34;;;;;;;3.63;0.47;;;25.50;76.30;;;;;;5067113;28;20076;-67
2022/09/02 12:50:18;;;;;;;0.50;0.20;;;25.40;75.10;;;;;;5073266;28;20064;-68
2022/09/02 12:52:49;;;;;;;1.50;0.20;;;25.50;75.70;;;;;;5073709;28;20051;-68
2022/09/02 12:55:27;;;;;;;2.30;0.38;;;25.60;75.60;;;;;;5064494;28;20484;-68
2022/09/02 12:58:11;;;;;;;2.92;0.40;;;25.60;74.40;;;;;;5073308;28;20060;-69
2022/09/02 13:00:45;;;;;;;4.35;0.47;;;25.60;74.20;;;;;;5071512;28;20045;-67
2022/09/02 13:03:49;;;;;;;3.97;0.77;;;25.70;74.70;;;;;;5071791;28;20119;-71
2022/09/02 13:06:31;;;;;;;5.80;0.90;;;25.70;74.60;;;;;;5069139;28;20074;-68
2022/09/02 13:09:25;;;;;;;3.35;0.50;;;25.70;74.00;;;;;;5070759;28;20518;-68